createdAt,value
2022-11-20T00:03:06.100Z,3.63
2022-11-20T00:08:09.146Z,5.95
2022-11-20T00:13:13.887Z,4.88
2022-11-20T00:18:17.014Z,4.22
2022-11-20T00:23:20.164Z,6.63
2022-11-20T00:28:24.638Z,5.18
2022-11-20T00:33:28.194Z,6.55
2022-11-20T00:38:32.236Z,7.03
2022-11-20T00:43:36.695Z,5.32
2022-11-20T00:48:39.781Z,6.20
2022-11-20T00:53:43.050Z,5.30
2022-11-20T00:58:50.752Z,5.90
2022-11-20T01:03:54.930Z,6.18
2022-11-20T01:08:58.940Z,6.38
2022-11-20T01:14:04.193Z,4.80
2022-11-20T01:19:08.910Z,4.82
2022-11-20T01:24:13.918Z,3.03
2022-11-20T01:29:22.455Z,3.72
2022-11-20T01:34:28.076Z,3.37
2022-11-20T01:39:31.535Z,5.32
2022-11-20T01:44:56.009Z,7.32
2022-11-20T01:50:01.041Z,6.68
2022-11-20T01:55:06.156Z,8.15
2022-11-20T02:00:12.454Z,5.72
2022-11-20T02:05:19.950Z,5.43
2022-11-20T02:10:23.083Z,5.57
2022-11-20T02:15:30.244Z,6.30
2022-11-20T02:20:36.690Z,5.85
2022-11-20T02:25:41.102Z,5.50
2022-11-20T02:30:44.229Z,7.32
2022-11-20T02:35:47.671Z,6.80
2022-11-20T02:40:55.493Z,5.13
2022-11-20T02:46:00.164Z,6.05
2022-11-20T02:51:03.170Z,4.15
2022-11-20T02:56:08.781Z,4.85
2022-11-20T03:01:11.828Z,7.18
2022-11-20T03:06:15.222Z,14.95
2022-11-20T03:11:19.654Z,16.42
2022-11-20T03:16:25.027Z,6.65
2022-11-20T03:21:31.426Z,9.70
2022-11-20T03:26:35.891Z,7.72
2022-11-20T03:31:41.247Z,7.40
2022-11-20T03:36:45.642Z,17.27
2022-11-20T03:41:50.297Z,6.90
2022-11-20T03:46:53.441Z,9.30
2022-11-20T03:51:56.537Z,20.13
2022-11-20T03:57:01.024Z,7.90
2022-11-20T04:02:04.146Z,7.22
2022-11-20T04:07:07.283Z,22.10
2022-11-20T04:12:11.758Z,8.90
2022-11-20T04:17:14.793Z,7.03
2022-11-20T04:22:18.172Z,7.45
2022-11-20T04:27:26.761Z,7.55
2022-11-20T04:32:30.933Z,9.45
2022-11-20T04:37:33.931Z,13.35
2022-11-20T04:42:38.391Z,8.80
2022-11-20T04:47:41.398Z,14.90
2022-11-20T04:52:44.992Z,9.25
2022-11-20T04:57:51.583Z,8.93
2022-11-20T05:02:54.769Z,11.38
2022-11-20T05:07:58.579Z,9.13
2022-11-20T05:13:03.019Z,8.73
2022-11-20T05:18:06.334Z,8.27
2022-11-20T05:23:09.918Z,12.18
2022-11-20T05:28:17.462Z,13.13
2022-11-20T05:33:21.068Z,8.18
2022-11-20T05:38:24.276Z,8.95
2022-11-20T05:43:29.219Z,9.40
2022-11-20T05:48:32.467Z,19.88
2022-11-20T05:53:35.975Z,12.90
2022-11-20T05:58:40.678Z,8.80
2022-11-20T06:03:46.890Z,9.50
2022-11-20T06:08:52.353Z,7.38
2022-11-20T06:14:00.112Z,9.10
2022-11-20T06:19:03.424Z,10.95
2022-11-20T06:24:07.219Z,10.00
2022-11-20T06:29:14.802Z,9.07
2022-11-20T06:34:18.225Z,9.32
2022-11-20T06:39:21.843Z,8.27
2022-11-20T06:44:27.088Z,9.60
2022-11-20T06:49:30.453Z,9.40
2022-11-20T06:54:33.872Z,9.52
2022-11-20T06:59:38.660Z,9.55
2022-11-20T07:04:45.115Z,9.60
2022-11-20T07:10:01.016Z,8.25
2022-11-20T07:15:07.937Z,9.50
2022-11-20T07:20:15.273Z,8.93
2022-11-20T07:25:18.649Z,9.70
2022-11-20T07:30:25.089Z,10.43
2022-11-20T07:35:28.611Z,7.75
2022-11-20T07:40:33.918Z,10.88
2022-11-20T07:45:38.829Z,10.13
2022-11-20T07:50:49.746Z,10.20
2022-11-20T07:55:54.111Z,11.60
2022-11-20T08:01:00.754Z,11.38
2022-11-20T08:06:04.360Z,12.68
2022-11-20T08:11:25.332Z,14.00
2022-11-20T08:16:30.011Z,11.63
2022-11-20T08:21:49.844Z,13.13
2022-11-20T08:26:53.170Z,12.88
2022-11-20T08:31:57.958Z,12.05
2022-11-20T08:37:01.503Z,12.98
2022-11-20T08:42:09.423Z,12.55
2022-11-20T08:47:15.333Z,13.10
2022-11-20T08:52:18.656Z,11.43
2022-11-20T08:57:28.550Z,11.60
2022-11-20T09:02:33.687Z,10.88
2022-11-20T09:07:36.860Z,11.32
2022-11-20T09:12:44.857Z,10.77
2022-11-20T09:18:00.064Z,7.90
2022-11-20T09:23:04.332Z,7.55
2022-11-20T09:28:08.072Z,5.10
2022-11-20T09:33:21.114Z,6.18
2022-11-20T09:38:34.812Z,6.28
2022-11-20T09:43:46.939Z,4.15
2022-11-20T09:49:16.560Z,5.55
2022-11-20T09:54:20.555Z,5.38
2022-11-20T09:59:33.684Z,5.75
2022-11-20T10:04:44.094Z,4.97
2022-11-20T10:09:53.336Z,5.40
2022-11-20T10:15:10.629Z,3.83
2022-11-20T10:20:19.733Z,4.20
2022-11-20T10:25:30.060Z,3.17
2022-11-20T10:30:37.604Z,3.28
2022-11-20T10:35:44.156Z,2.90
2022-11-20T10:40:48.448Z,2.30
2022-11-20T10:45:55.222Z,2.95
2022-11-20T10:51:17.897Z,2.67
2022-11-20T10:56:23.051Z,3.33
2022-11-20T11:01:29.701Z,2.90
2022-11-20T11:06:40.709Z,2.30
2022-11-20T11:11:47.208Z,2.35
2022-11-20T11:17:00.044Z,1.67
2022-11-20T11:22:07.699Z,1.90
2022-11-20T11:27:18.273Z,2.80
2022-11-20T11:32:24.999Z,2.90
2022-11-20T11:37:37.109Z,3.35
2022-11-20T11:42:50.407Z,3.40
2022-11-20T11:47:55.624Z,2.10
2022-11-20T11:53:08.065Z,1.65
2022-11-20T11:58:17.207Z,3.33
2022-11-20T12:03:24.323Z,1.88
2022-11-20T12:08:40.811Z,1.85
2022-11-20T12:13:49.931Z,1.83
2022-11-20T12:19:01.688Z,1.70
2022-11-20T12:24:33.985Z,1.98
2022-11-20T12:29:44.278Z,1.80
2022-11-20T12:34:54.131Z,2.13
2022-11-20T12:40:01.746Z,1.60
2022-11-20T12:45:18.533Z,2.10
2022-11-20T12:50:25.897Z,2.25
2022-11-20T12:55:41.219Z,2.53
2022-11-20T13:00:54.274Z,1.23
2022-11-20T13:06:01.794Z,1.50
2022-11-20T13:11:11.482Z,1.58
2022-11-20T13:21:25.611Z,1.40
2022-11-20T13:26:30.294Z,1.95
2022-11-20T13:31:34.807Z,1.90
2022-11-20T13:36:43.073Z,1.83
2022-11-20T13:41:57.408Z,1.25
2022-11-20T13:47:00.850Z,1.40
2022-11-20T13:52:11.325Z,1.50
2022-11-20T13:57:40.797Z,1.23
2022-11-20T14:02:44.060Z,1.20
2022-11-20T14:07:47.447Z,1.88
2022-11-20T14:12:53.046Z,1.33
2022-11-20T14:17:56.400Z,1.60
2022-11-20T14:23:02.374Z,1.90
2022-11-20T14:28:12.698Z,1.80
2022-11-20T14:33:16.537Z,1.35
2022-11-20T14:38:21.271Z,1.90
2022-11-20T14:43:30.076Z,1.50
2022-11-20T14:48:45.803Z,1.33
2022-11-20T14:54:01.053Z,1.60
2022-11-20T14:59:30.553Z,1.90
2022-11-20T15:04:47.702Z,1.90
2022-11-20T15:10:10.750Z,1.73
2022-11-20T15:15:16.206Z,2.00
2022-11-20T15:20:48.432Z,1.50
2022-11-20T15:26:27.343Z,1.60
2022-11-20T15:31:35.844Z,1.88
2022-11-20T15:36:42.184Z,1.90
2022-11-20T15:41:58.226Z,1.83
2022-11-20T15:47:04.458Z,1.60
2022-11-20T15:52:07.577Z,1.42
2022-11-20T15:57:11.067Z,1.75
2022-11-20T16:02:19.141Z,2.00
2022-11-20T16:07:25.200Z,1.95
2022-11-20T16:12:45.632Z,2.53
2022-11-20T16:17:49.978Z,1.60
2022-11-20T16:22:53.308Z,2.10
2022-11-20T16:28:00.650Z,1.40
2022-11-20T16:33:12.001Z,1.50
2022-11-20T16:38:15.045Z,1.30
2022-11-20T16:43:42.314Z,0.98
2022-11-20T16:49:23.767Z,1.20
2022-11-20T16:54:59.325Z,1.80
2022-11-20T17:00:05.500Z,1.60
2022-11-20T17:05:10.609Z,1.95
2022-11-20T17:10:13.797Z,2.33
2022-11-20T17:15:17.226Z,1.90
2022-11-20T17:20:21.868Z,2.33
2022-11-20T17:25:24.920Z,2.40
2022-11-20T17:30:27.945Z,2.53
2022-11-20T17:35:36.970Z,2.30
2022-11-20T17:40:40.206Z,2.78
2022-11-20T17:45:43.786Z,2.60
2022-11-20T17:50:48.566Z,2.80
2022-11-20T17:56:14.362Z,3.08
2022-11-20T18:01:17.830Z,2.67
2022-11-20T18:06:24.611Z,2.67
2022-11-20T18:11:32.576Z,1.83
2022-11-20T18:16:39.665Z,2.00
2022-11-20T18:21:44.975Z,1.67
2022-11-20T18:26:48.961Z,2.40
2022-11-20T18:31:52.197Z,2.63
2022-11-20T18:36:56.720Z,2.08
2022-11-20T18:42:16.989Z,2.50
2022-11-20T18:47:21.270Z,2.30
2022-11-20T18:52:26.643Z,2.50
2022-11-20T18:57:30.304Z,2.72
2022-11-20T19:02:36.679Z,1.80
2022-11-20T19:07:45.871Z,2.03
2022-11-20T19:12:49.185Z,2.65
2022-11-20T19:17:52.204Z,2.03
2022-11-20T19:22:57.042Z,1.90
2022-11-20T19:28:01.030Z,1.80
2022-11-20T19:33:04.194Z,1.10
2022-11-20T19:38:08.650Z,1.55
2022-11-20T19:43:11.894Z,1.58
2022-11-20T19:48:15.044Z,1.80
2022-11-20T19:53:19.922Z,2.30
2022-11-20T19:58:23.201Z,2.80
2022-11-20T20:03:28.200Z,3.40
2022-11-20T20:08:33.158Z,2.70
2022-11-20T20:13:36.612Z,3.88
2022-11-20T20:18:39.858Z,4.07
2022-11-20T20:23:46.040Z,4.47
2022-11-20T20:28:49.295Z,3.58
2022-11-20T20:33:52.434Z,3.58
2022-11-20T20:38:59.432Z,4.30
2022-11-20T20:44:20.696Z,3.55
2022-11-20T20:49:25.197Z,4.60
2022-11-20T20:54:34.519Z,4.28
2022-11-20T20:59:38.299Z,3.28
2022-11-20T21:04:41.496Z,3.47
2022-11-20T21:09:45.960Z,3.60
2022-11-20T21:14:49.204Z,3.28
2022-11-20T21:19:52.205Z,3.08
2022-11-20T21:24:56.629Z,3.15
2022-11-20T21:29:59.854Z,3.40
2022-11-20T21:35:03.052Z,3.03
2022-11-20T21:40:09.085Z,3.97
2022-11-20T21:45:12.265Z,3.38
2022-11-20T21:50:15.641Z,3.85
2022-11-20T21:55:20.170Z,3.50
2022-11-20T22:00:23.510Z,3.78
2022-11-20T22:05:30.056Z,3.30
2022-11-20T22:10:34.790Z,3.85
2022-11-20T22:15:59.139Z,4.60
2022-11-20T22:21:04.869Z,3.22
2022-11-20T22:26:10.266Z,4.20
2022-11-20T22:31:13.342Z,3.63
2022-11-20T22:36:17.464Z,3.63
2022-11-20T22:41:25.006Z,3.17
2022-11-20T22:46:29.396Z,4.07
2022-11-20T22:51:33.581Z,3.72
2022-11-20T22:56:38.040Z,3.50
2022-11-20T23:01:41.426Z,3.33
2022-11-20T23:06:44.573Z,3.75
2022-11-20T23:11:49.095Z,3.30
2022-11-20T23:16:52.192Z,3.42
2022-11-20T23:21:55.287Z,4.32
2022-11-20T23:26:59.716Z,4.18
2022-11-20T23:32:02.999Z,3.40
2022-11-20T23:37:06.174Z,4.18
2022-11-20T23:42:10.812Z,3.33
2022-11-20T23:47:14.116Z,2.80
2022-11-20T23:52:17.226Z,2.63
2022-11-20T23:57:21.696Z,2.83
